Kittredge, Colorado
Current Conditions -  °F | °C
As of 5:49 PM on Tuesday 27 Jan 2015 (Local Time) from KBJC Reporting Station
Scattered Clouds Scattered Clouds  
Wind Chill: 57°   Ceiling: Unl
Heat Index: 57°   Visibility: 30mi
Dew Point: 25°   Wind: 12mph
Humidity: 29%   Direction: 310°NW
Pressure: 30.04"   Gusts: NA
Location:  39.66°N, 105.3°W
Report Text: KBJC 280049Z 31010KT 30SM SCT120 14/M04 A3004
Loading
Personal Weather Stations






























Interactive Weather Map New forecast layout! Learn more

10-Day Weather Forecast

Advertisements
Track Severe Weather on mobile